Time;durP1;ratioP1;P1;durP2;ratioP2;P2;SDS_P1;SDS_P2;PMS_P1;PMS_P2;Temp;Humidity;BMP_temperature;BMP_pressure;BME280_temperature;BME280_humidity;BME280_pressure;Samples;Min_cycle;Max_cycle;Signal;HPM_P1;HPM_P2
2023/02/14 00:00:28;;;;;;;6.63;1.13;;;23.10;40.90;;;;;;5087970;28;20068;-53
2023/02/14 00:02:55;;;;;;;8.43;1.30;;;22.00;40.10;;;;;;5086651;28;20056;-53
2023/02/14 00:05:22;;;;;;;7.38;1.23;;;21.80;40.10;;;;;;5085284;28;20108;-54
2023/02/14 00:07:48;;;;;;;10.35;7.28;;;21.70;40.20;;;;;;5086837;28;20040;-53
2023/02/14 00:10:15;;;;;;;6.82;1.35;;;21.60;40.30;;;;;;5087325;28;20039;-54
2023/02/14 00:12:41;;;;;;;6.18;1.30;;;21.60;40.50;;;;;;5086278;28;20051;-56
2023/02/14 00:15:24;;;;;;;8.88;1.15;;;21.60;40.90;;;;;;5083275;28;20573;-55
2023/02/14 00:17:58;;;;;;;5.68;1.20;;;21.50;41.10;;;;;;5085538;28;20050;-57
2023/02/14 00:20:25;;;;;;;4.93;1.00;;;21.50;41.00;;;;;;5085332;28;20092;-55
2023/02/14 00:22:52;;;;;;;8.52;1.60;;;21.50;41.50;;;;;;5086579;28;20051;-58
2023/02/14 00:25:19;;;;;;;33.67;3.15;;;21.40;41.60;;;;;;5086415;28;20612;-56
2023/02/14 00:27:45;;;;;;;8.27;1.77;;;21.40;41.40;;;;;;5087712;28;20047;-55
2023/02/14 00:30:13;;;;;;;10.32;2.22;;;21.40;41.20;;;;;;5086237;28;20056;-54
2023/02/14 00:32:40;;;;;;;6.57;1.17;;;21.50;41.40;;;;;;5089013;28;21420;-55
2023/02/14 00:35:08;;;;;;;6.25;1.40;;;21.40;41.30;;;;;;5087798;28;20051;-56
2023/02/14 00:37:35;;;;;;;3.65;1.30;;;21.30;41.80;;;;;;5086557;28;20060;-58
2023/02/14 00:40:02;;;;;;;5.38;1.00;;;21.20;41.80;;;;;;5086793;28;20058;-58
2023/02/14 00:42:28;;;;;;;5.97;1.23;;;21.20;42.00;;;;;;5090687;28;20069;-50
2023/02/14 00:44:55;;;;;;;4.95;1.17;;;21.20;42.00;;;;;;5091276;28;20055;-54
2023/02/14 00:47:21;;;;;;;6.55;1.50;;;21.20;41.70;;;;;;5090957;28;20099;-56
2023/02/14 00:49:47;;;;;;;7.57;1.30;;;21.00;41.80;;;;;;5090222;28;20055;-57
2023/02/14 00:52:14;;;;;;;9.18;1.73;;;20.80;42.10;;;;;;5089668;28;20151;-53
2023/02/14 00:54:40;;;;;;;5.65;1.30;;;20.80;42.60;;;;;;5090805;28;20052;-55
2023/02/14 00:57:07;;;;;;;5.78;1.20;;;20.70;42.80;;;;;;5091202;28;20043;-56
2023/02/14 00:59:33;;;;;;;16.10;1.70;;;20.70;43.10;;;;;;5091375;28;20418;-55
2023/02/14 01:02:00;;;;;;;5.95;1.50;;;20.50;43.70;;;;;;5089917;28;20052;-55
2023/02/14 01:04:26;;;;;;;5.75;1.35;;;20.40;44.00;;;;;;5089521;28;20090;-56
2023/02/14 01:06:52;;;;;;;16.05;5.82;;;20.20;44.10;;;;;;5089981;28;20145;-54
2023/02/14 01:09:19;;;;;;;12.02;3.80;;;20.10;45.10;;;;;;5091446;28;20071;-52
2023/02/14 01:11:45;;;;;;;11.40;3.78;;;20.00;45.40;;;;;;5090013;28;20071;-56
2023/02/14 01:14:12;;;;;;;7.30;2.95;;;20.00;45.40;;;;;;5090500;28;20052;-54
2023/02/14 01:16:38;;;;;;;7.53;2.72;;;19.80;45.20;;;;;;5089031;28;20095;-52
2023/02/14 01:19:05;;;;;;;11.63;3.63;;;19.70;45.40;;;;;;5091434;28;20051;-52
2023/02/14 01:21:33;;;;;;;12.93;3.55;;;19.50;45.60;;;;;;5091142;28;20094;-53
2023/02/14 01:24:06;;;;;;;14.40;3.05;;;19.50;45.60;;;;;;5090971;28;20142;-53
2023/02/14 01:26:32;;;;;;;15.30;4.00;;;19.30;45.90;;;;;;5085715;28;20086;-53
2023/02/14 01:28:59;;;;;;;17.90;4.72;;;19.30;46.50;;;;;;5089082;28;20098;-56
2023/02/14 01:31:28;;;;;;;21.05;5.28;;;18.90;51.90;;;;;;5089569;28;20099;-54
2023/02/14 01:33:56;;;;;;;15.13;4.75;;;19.10;46.80;;;;;;5091162;28;20069;-54
2023/02/14 01:36:34;;;;;;;15.27;4.65;;;19.00;47.50;;;;;;5089125;28;20063;-50
2023/02/14 01:39:04;;;;;;;13.50;3.38;;;19.00;47.80;;;;;;5089666;28;20534;-52
2023/02/14 01:41:34;;;;;;;16.40;3.17;;;18.90;47.60;;;;;;5089585;28;20115;-51
2023/02/14 01:44:02;;;;;;;18.67;4.00;;;18.80;47.40;;;;;;5090079;28;20064;-51
2023/02/14 01:46:34;;;;;;;14.55;4.47;;;18.70;48.00;;;;;;5090237;28;20068;-53
2023/02/14 01:49:06;;;;;;;14.75;4.50;;;18.60;48.60;;;;;;5095700;28;20061;-53
2023/02/14 01:51:33;;;;;;;17.75;4.70;;;18.50;49.10;;;;;;5088765;28;20077;-56
2023/02/14 01:54:01;;;;;;;25.25;4.60;;;18.40;49.00;;;;;;5087188;28;20059;-51
2023/02/14 01:56:35;;;;;;;18.75;3.72;;;18.40;49.10;;;;;;5089162;28;20083;-53
2023/02/14 01:59:05;;;;;;;20.38;4.28;;;18.40;49.70;;;;;;5089188;28;20071;-51
2023/02/14 02:01:31;;;;;;;19.92;3.60;;;18.40;50.00;;;;;;5088334;28;20096;-52
2023/02/14 02:04:26;;;;;;;15.32;3.38;;;18.50;50.80;;;;;;5089840;28;20077;-54
2023/02/14 02:06:59;;;;;;;26.13;3.72;;;18.40;51.20;;;;;;5085220;28;20110;-52
2023/02/14 02:09:36;;;;;;;23.20;3.95;;;18.50;51.20;;;;;;5088235;28;20449;-55
2023/02/14 02:12:03;;;;;;;25.70;4.82;;;18.50;50.70;;;;;;5086543;28;20128;-56
2023/02/14 02:14:30;;;;;;;14.73;3.28;;;18.50;50.70;;;;;;5088826;28;20068;-54
2023/02/14 02:17:18;;;;;;;17.25;2.65;;;18.80;59.00;;;;;;5088062;28;20067;-55
2023/02/14 02:20:12;;;;;;;15.93;3.20;;;18.40;55.30;;;;;;5088818;28;20081;-50
2023/02/14 02:23:19;;;;;;;20.65;3.28;;;18.40;52.50;;;;;;5087314;28;20407;-53
2023/02/14 02:26:04;;;;;;;12.45;3.75;;;17.80;66.90;;;;;;5088601;28;20076;-49
2023/02/14 02:28:45;;;;;;;15.13;4.40;;;18.20;53.00;;;;;;5085893;28;20094;-52
2023/02/14 02:31:44;;;;;;;26.92;7.30;;;18.50;53.90;;;;;;5088407;28;20076;-51
2023/02/14 02:34:36;;;;;;;15.57;4.53;;;18.10;53.40;;;;;;5088429;28;20071;-53
2023/02/14 02:37:15;;;;;;;19.73;4.18;;;18.00;53.50;;;;;;5086694;28;20070;-52
2023/02/14 02:40:16;;;;;;;14.43;3.13;;;19.00;85.60;;;;;;5088268;28;20431;-52
2023/02/14 02:42:52;;;;;;;14.45;3.58;;;17.90;53.40;;;;;;5086736;28;20141;-56
2023/02/14 02:45:28;;;;;;;20.15;3.00;;;17.80;81.90;;;;;;5088316;28;20076;-56
2023/02/14 02:48:09;;;;;;;14.57;3.00;;;17.40;72.90;;;;;;5087102;28;20112;-56
2023/02/14 02:53:38;;;;;;;20.17;3.28;;;17.70;54.20;;;;;;5092016;28;20110;-55
2023/02/14 02:59:17;;;;;;;20.45;2.50;;;18.30;68.50;;;;;;5089735;28;20068;-56
2023/02/14 03:01:53;;;;;;;39.15;3.53;;;17.70;54.70;;;;;;5088453;28;20068;-52
2023/02/14 03:07:33;;;;;;;12.80;3.42;;;17.90;59.50;;;;;;5089470;28;20022;-53
2023/02/14 03:09:52;;;;;;;13.75;3.40;;;17.70;55.00;;;;;;5048020;28;20095;-69
2023/02/14 03:12:34;;;;;;;14.80;3.25;;;17.70;55.10;;;;;;5046921;28;20089;-69
2023/02/14 03:15:18;;;;;;;16.02;3.58;;;17.70;55.30;;;;;;5049579;28;20070;-69
2023/02/14 03:18:28;;;;;;;26.17;5.10;;;17.60;55.60;;;;;;5048896;28;20060;-70
2023/02/14 03:21:00;;;;;;;19.10;4.75;;;17.60;55.60;;;;;;5048776;28;20521;-68
2023/02/14 03:23:34;;;;;;;31.65;5.10;;;17.50;55.90;;;;;;5049756;28;20072;-68
2023/02/14 03:26:01;;;;;;;22.25;5.15;;;17.40;56.10;;;;;;5049579;28;21705;-68
2023/02/14 03:28:36;;;;;;;;;;;17.30;56.60;;;;;;5049683;28;20061;-70
2023/02/14 03:31:26;;;;;;;24.40;5.32;;;17.20;56.70;;;;;;5046752;28;19997;-67
2023/02/14 03:34:30;;;;;;;22.35;5.35;;;17.10;56.90;;;;;;5047172;28;20072;-68
2023/02/14 03:37:14;;;;;;;34.60;6.50;;;17.10;57.20;;;;;;5035478;28;20109;-69
2023/02/14 03:40:02;;;;;;;24.15;6.13;;;16.90;56.30;;;;;;5048183;28;20083;-65
2023/02/14 03:42:37;;;;;;;22.27;6.60;;;16.80;55.10;;;;;;5048047;28;20071;-64
2023/02/14 03:45:08;;;;;;;31.30;7.13;;;16.90;55.10;;;;;;5048005;28;20149;-65
2023/02/14 03:47:38;;;;;;;25.13;7.43;;;16.90;55.00;;;;;;5047873;28;20065;-66
2023/02/14 03:50:27;;;;;;;34.55;7.72;;;16.80;55.10;;;;;;5048340;28;20062;-67
2023/02/14 03:52:55;;;;;;;31.23;6.75;;;16.00;65.80;;;;;;5047211;28;20061;-67
2023/02/14 03:55:36;;;;;;;33.53;7.47;;;16.90;63.20;;;;;;5050932;28;20209;-66
2023/02/14 03:58:24;;;;;;;33.03;5.60;;;16.50;55.20;;;;;;5050895;28;20074;-67
2023/02/14 04:00:57;;;;;;;29.73;4.50;;;16.40;54.20;;;;;;5048593;28;20120;-65
2023/02/14 04:03:26;;;;;;;31.42;4.13;;;16.70;69.50;;;;;;5050314;28;20061;-67
2023/02/14 04:05:53;;;;;;;37.42;4.45;;;16.30;76.10;;;;;;5048796;28;20080;-65
2023/02/14 04:08:26;;;;;;;31.38;3.53;;;16.40;74.20;;;;;;5048572;28;20317;-66
2023/02/14 04:10:55;;;;;;;39.67;4.28;;;16.30;55.60;;;;;;5047800;28;20142;-67
2023/02/14 04:13:21;;;;;;;13.57;2.92;;;16.30;56.20;;;;;;5047307;28;20061;-69
2023/02/14 04:15:48;;;;;;;18.92;2.85;;;16.30;56.30;;;;;;5052426;28;20073;-67
2023/02/14 04:20:59;;;;;;;11.80;2.22;;;16.30;56.60;;;;;;5051620;28;20115;-64
2023/02/14 04:23:26;;;;;;;14.10;2.92;;;16.20;56.80;;;;;;5051702;28;20066;-67
2023/02/14 04:25:52;;;;;;;11.98;2.42;;;16.20;57.00;;;;;;5051791;28;20690;-66
2023/02/14 04:28:19;;;;;;;8.35;1.80;;;16.10;57.10;;;;;;5053189;28;20061;-64
2023/02/14 04:30:45;;;;;;;10.38;2.25;;;16.10;57.30;;;;;;5051351;28;20062;-64
2023/02/14 04:33:12;;;;;;;17.23;2.67;;;16.00;57.40;;;;;;5052169;28;20214;-66
2023/02/14 04:35:38;;;;;;;14.25;2.25;;;16.00;57.60;;;;;;5051591;28;20433;-66
2023/02/14 04:38:05;;;;;;;12.50;2.33;;;15.80;57.70;;;;;;5051006;28;20068;-67
2023/02/14 04:40:33;;;;;;;7.93;2.42;;;15.80;58.00;;;;;;5051785;28;20097;-70
2023/02/14 04:43:00;;;;;;;8.48;2.30;;;15.80;73.30;;;;;;5051969;28;20082;-66
2023/02/14 04:45:26;;;;;;;12.98;2.28;;;15.70;58.40;;;;;;5052208;28;20077;-69
2023/02/14 04:47:53;;;;;;;18.15;2.90;;;15.70;58.30;;;;;;5052356;28;20090;-67
2023/02/14 04:50:19;;;;;;;;;;;15.70;58.30;;;;;;5051873;28;20461;-68
2023/02/14 04:52:45;;;;;;;12.00;2.95;;;15.70;58.30;;;;;;5051554;28;20742;-67
2023/02/14 04:55:11;;;;;;;;;;;15.50;58.70;;;;;;5052227;28;20079;-67
2023/02/14 04:57:38;;;;;;;10.30;3.13;;;15.50;59.30;;;;;;5051768;28;19951;-67
2023/02/14 05:00:04;;;;;;;;;;;15.40;59.20;;;;;;5051887;28;20091;-65
2023/02/14 05:02:30;;;;;;;10.40;3.88;;;15.20;59.80;;;;;;5051699;28;20027;-66
2023/02/14 05:04:57;;;;;;;11.23;3.75;;;15.80;78.40;;;;;;5050239;28;20085;-68
2023/02/14 05:07:23;;;;;;;;;;;15.10;60.20;;;;;;5052615;28;20518;-66
2023/02/14 05:09:49;;;;;;;10.32;3.53;;;15.10;60.70;;;;;;5051435;28;20024;-68
2023/02/14 05:12:15;;;;;;;;;;;15.00;60.90;;;;;;5050342;28;20100;-67
2023/02/14 05:14:42;;;;;;;15.82;3.53;;;14.90;76.50;;;;;;5050360;28;19930;-67
2023/02/14 05:17:08;;;;;;;12.32;3.05;;;15.10;83.60;;;;;;5051027;28;20100;-66
2023/02/14 05:19:35;;;;;;;;;;;14.90;61.30;;;;;;5051546;28;20070;-66
2023/02/14 05:22:01;;;;;;;11.55;4.03;;;15.20;74.30;;;;;;5050035;28;20390;-67
2023/02/14 05:24:27;;;;;;;;;;;14.90;62.00;;;;;;5051978;28;20058;-67
2023/02/14 05:26:53;;;;;;;11.68;3.05;;;14.60;62.30;;;;;;5050852;28;20325;-63
2023/02/14 05:29:20;;;;;;;15.25;3.15;;;14.40;65.80;;;;;;5051259;28;20074;-66
2023/02/14 05:31:46;;;;;;;;;;;14.60;63.30;;;;;;5051775;28;20473;-66
2023/02/14 05:34:12;;;;;;;17.63;3.10;;;14.60;63.40;;;;;;5051675;28;19949;-66
2023/02/14 05:36:38;;;;;;;;;;;14.50;63.60;;;;;;5051231;28;20149;-67
2023/02/14 05:39:05;;;;;;;11.23;3.10;;;14.50;63.70;;;;;;5050924;28;19951;-67
2023/02/14 05:41:31;;;;;;;12.48;2.53;;;14.50;64.20;;;;;;5051228;28;20535;-67
2023/02/14 05:43:58;;;;;;;12.32;3.10;;;14.50;64.00;;;;;;5033733;28;20080;-66
2023/02/14 05:46:24;;;;;;;;;;;14.50;64.00;;;;;;5051915;28;20095;-68
2023/02/14 05:48:51;;;;;;;13.35;3.33;;;14.40;84.70;;;;;;5031644;28;19939;-67
2023/02/14 05:51:17;;;;;;;16.10;3.80;;;14.20;78.10;;;;;;5051329;28;20096;-67
2023/02/14 05:53:43;;;;;;;;;;;14.30;64.50;;;;;;5051430;28;20990;-68
2023/02/14 05:56:10;;;;;;;22.23;3.60;;;14.30;64.70;;;;;;5051155;28;21184;-66
2023/02/14 05:58:36;;;;;;;18.02;4.60;;;14.30;64.80;;;;;;5052264;28;20080;-65
2023/02/14 06:01:02;;;;;;;;;;;14.30;65.20;;;;;;5050387;28;20075;-66
2023/02/14 06:03:28;;;;;;;25.00;5.30;;;14.20;64.70;;;;;;5050726;28;19972;-66
2023/02/14 06:05:54;;;;;;;;;;;14.10;65.00;;;;;;5051292;28;20093;-65
2023/02/14 06:08:21;;;;;;;30.73;4.90;;;14.10;65.10;;;;;;5050209;28;20070;-68
2023/02/14 06:10:47;;;;;;;25.40;5.00;;;14.10;65.40;;;;;;5050432;28;20537;-68
2023/02/14 06:13:13;;;;;;;;;;;14.00;65.50;;;;;;5050615;28;20081;-67
2023/02/14 06:15:40;;;;;;;37.53;5.55;;;14.10;88.00;;;;;;5049314;28;19960;-66
2023/02/14 06:18:06;;;;;;;20.23;4.22;;;13.90;66.20;;;;;;5050040;28;20146;-67
2023/02/14 06:20:33;;;;;;;16.33;4.30;;;13.50;68.50;;;;;;5050882;28;20065;-65
2023/02/14 06:23:00;;;;;;;24.08;3.60;;;13.90;66.10;;;;;;5051117;28;20074;-67
2023/02/14 06:25:27;;;;;;;20.20;4.07;;;13.60;68.40;;;;;;5049761;28;20080;-68
2023/02/14 06:27:57;;;;;;;29.65;4.45;;;13.80;66.50;;;;;;5050336;28;20155;-66
2023/02/14 06:30:24;;;;;;;15.02;4.13;;;14.10;85.70;;;;;;5050077;28;20431;-68
2023/02/14 06:32:50;;;;;;;20.25;3.97;;;13.60;72.90;;;;;;5050325;28;20070;-67
2023/02/14 06:35:16;;;;;;;;;;;13.90;67.10;;;;;;5050277;28;20081;-68
2023/02/14 06:37:44;;;;;;;19.27;3.63;;;13.40;87.60;;;;;;5049621;28;19962;-68
2023/02/14 06:40:11;;;;;;;23.05;3.40;;;13.60;67.40;;;;;;5049513;28;20103;-67
2023/02/14 06:42:38;;;;;;;20.17;3.83;;;13.90;89.60;;;;;;5050430;28;20059;-66
2023/02/14 06:45:06;;;;;;;25.75;3.40;;;13.70;67.80;;;;;;5048153;28;20085;-66
2023/02/14 06:47:32;;;;;;;18.17;3.80;;;13.60;68.00;;;;;;5049388;28;20131;-66
2023/02/14 06:50:03;;;;;;;;;;;13.50;67.90;;;;;;5035113;28;20064;-68
2023/02/14 06:52:30;;;;;;;18.88;3.55;;;13.50;67.90;;;;;;5050477;28;19967;-64
2023/02/14 06:54:57;;;;;;;19.33;3.58;;;13.30;80.20;;;;;;5031994;28;20153;-68
2023/02/14 06:57:23;;;;;;;17.35;3.65;;;13.50;68.70;;;;;;5048044;28;20065;-67
2023/02/14 06:59:49;;;;;;;;;;;13.50;68.60;;;;;;5048457;28;20084;-67
2023/02/14 07:02:16;;;;;;;23.02;7.63;;;13.50;68.90;;;;;;5048201;28;20297;-66
2023/02/14 07:04:42;;;;;;;;;;;13.60;69.60;;;;;;5049410;28;20160;-66
2023/02/14 07:07:10;;;;;;;12.05;3.70;;;13.50;69.60;;;;;;5047037;28;19987;-67
2023/02/14 07:09:37;;;;;;;8.88;2.40;;;13.50;70.80;;;;;;5049724;28;20136;-70
2023/02/14 07:12:04;;;;;;;6.45;2.45;;;13.50;70.90;;;;;;5049139;28;20073;-66
2023/02/14 07:14:30;;;;;;;4.82;2.30;;;13.40;71.30;;;;;;5049201;28;20512;-66
2023/02/14 07:16:56;;;;;;;;;;;13.30;72.00;;;;;;5050098;28;20073;-67
2023/02/14 07:19:22;;;;;;;5.25;2.17;;;13.30;72.20;;;;;;5049856;28;19964;-68
2023/02/14 07:21:49;;;;;;;;;;;13.30;72.90;;;;;;5049618;28;20096;-66
2023/02/14 07:24:15;;;;;;;8.05;2.53;;;13.30;73.60;;;;;;5049287;28;19958;-69
2023/02/14 07:26:41;;;;;;;;;;;13.20;74.10;;;;;;5049697;28;20085;-67
2023/02/14 07:29:08;;;;;;;11.70;4.03;;;13.20;74.40;;;;;;5048974;28;20031;-68
2023/02/14 07:31:34;;;;;;;;;;;13.20;74.40;;;;;;5048936;28;20066;-66
2023/02/14 07:34:00;;;;;;;7.45;2.72;;;12.90;90.90;;;;;;5050125;28;19968;-67
2023/02/14 07:36:27;;;;;;;7.55;2.58;;;13.20;75.00;;;;;;5049450;28;20152;-68
2023/02/14 07:38:55;;;;;;;17.88;2.75;;;13.20;75.00;;;;;;5049082;28;20154;-67
2023/02/14 07:41:22;;;;;;;8.02;2.40;;;13.10;75.90;;;;;;5049182;28;20203;-65
2023/02/14 07:43:48;;;;;;;6.00;2.10;;;13.00;76.50;;;;;;5048823;28;20065;-64
2023/02/14 07:46:16;;;;;;;;;;;12.90;76.40;;;;;;5049369;28;20095;-68
2023/02/14 07:48:42;;;;;;;7.10;2.00;;;12.90;77.10;;;;;;5049941;28;20003;-66
2023/02/14 07:51:09;;;;;;;10.40;2.13;;;12.90;94.10;;;;;;5053132;28;20085;-66
2023/02/14 07:53:35;;;;;;;8.45;1.80;;;13.30;92.40;;;;;;5054151;28;20060;-66
2023/02/14 07:56:01;;;;;;;;;;;12.90;78.10;;;;;;5053990;28;20067;-66
2023/02/14 07:58:28;;;;;;;10.90;3.10;;;13.80;91.00;;;;;;5053473;28;20317;-64
2023/02/14 08:00:54;;;;;;;4.78;2.08;;;13.30;95.60;;;;;;5051001;28;20103;-65
2023/02/14 08:03:20;;;;;;;;;;;13.00;80.10;;;;;;5053208;28;20096;-65
2023/02/14 08:06:06;;;;;;;9.65;2.47;;;13.00;79.80;;;;;;5052582;28;20007;-67
2023/02/14 08:08:33;;;;;;;9.63;2.05;;;;;;;;;;5052596;28;20118;-65
2023/02/14 08:10:59;;;;;;;6.97;2.70;;;13.00;89.00;;;;;;5052361;28;20466;-63
2023/02/14 08:13:26;;;;;;;7.75;2.70;;;12.70;96.60;;;;;;5051999;28;20079;-66
2023/02/14 08:16:04;;;;;;;10.15;2.65;;;12.40;96.80;;;;;;5052788;28;20067;-66
2023/02/14 08:18:37;;;;;;;5.07;2.22;;;12.90;92.30;;;;;;5052128;28;20115;-65
2023/02/14 08:21:05;;;;;;;15.23;3.60;;;12.30;94.60;;;;;;5052412;28;20738;-67
2023/02/14 08:23:31;;;;;;;9.07;2.17;;;12.70;81.80;;;;;;5052623;28;20113;-65
2023/02/14 08:25:58;;;;;;;10.10;2.67;;;12.60;82.50;;;;;;5053334;28;20091;-66
2023/02/14 08:28:24;;;;;;;6.32;2.60;;;12.90;91.90;;;;;;5052986;28;20579;-67
2023/02/14 08:30:51;;;;;;;17.08;2.95;;;12.50;92.90;;;;;;5051450;28;20074;-66
2023/02/14 08:33:18;;;;;;;8.60;2.63;;;12.80;97.90;;;;;;5053467;28;20072;-68
2023/02/14 08:35:45;;;;;;;12.32;3.05;;;12.50;83.40;;;;;;5052590;28;20067;-67
2023/02/14 08:38:12;;;;;;;7.32;2.42;;;12.80;99.90;;;;;;5052398;28;20081;-66
2023/02/14 08:40:38;;;;;;;9.65;2.80;;;;;;;;;;5051628;28;20066;-68
2023/02/14 08:43:06;;;;;;;7.65;2.00;;;11.90;94.60;;;;;;5034094;28;20065;-67
2023/02/14 08:45:32;;;;;;;6.63;1.90;;;12.40;96.60;;;;;;5034643;28;20483;-65
2023/02/14 08:48:03;;;;;;;;;;;12.40;84.20;;;;;;5035276;28;20425;-65
2023/02/14 08:50:29;;;;;;;6.30;1.85;;;11.90;94.10;;;;;;5052733;28;19960;-67
2023/02/14 08:52:55;;;;;;;;;;;12.20;84.50;;;;;;5052223;28;20073;-64
2023/02/14 08:55:22;;;;;;;9.57;2.20;;;12.10;90.60;;;;;;5051656;28;19942;-66
2023/02/14 08:57:48;;;;;;;8.13;2.40;;;12.70;98.00;;;;;;5051896;28;20133;-66
2023/02/14 09:00:15;;;;;;;;;;;12.30;85.30;;;;;;5052025;28;20060;-66
2023/02/14 09:02:41;;;;;;;7.20;2.65;;;12.20;93.60;;;;;;5051208;28;19950;-65
2023/02/14 09:05:09;;;;;;;5.53;2.85;;;12.20;94.80;;;;;;5050248;28;20080;-67
2023/02/14 09:07:36;;;;;;;8.80;2.92;;;12.10;95.70;;;;;;5032378;28;20435;-66
2023/02/14 09:10:02;;;;;;;11.85;3.20;;;12.20;84.90;;;;;;5049428;28;20090;-65
2023/02/14 09:12:29;;;;;;;6.60;2.20;;;12.10;91.40;;;;;;5050985;28;20503;-65
2023/02/14 09:14:55;;;;;;;;;;;12.30;85.30;;;;;;5051028;28;20174;-67
2023/02/14 09:17:21;;;;;;;10.88;3.80;;;12.10;92.30;;;;;;5049564;28;20028;-67
2023/02/14 09:19:48;;;;;;;11.82;3.25;;;11.60;91.70;;;;;;5049645;28;20081;-68
2023/02/14 09:22:14;;;;;;;14.40;3.47;;;12.50;96.70;;;;;;5048924;28;20089;-67
2023/02/14 09:24:40;;;;;;;;;;;12.10;85.70;;;;;;5050711;28;20656;-67
2023/02/14 09:27:08;;;;;;;11.85;5.05;;;12.30;94.70;;;;;;5050686;28;20414;-67
2023/02/14 09:29:35;;;;;;;22.25;5.93;;;12.40;93.60;;;;;;5051959;28;20164;-67
2023/02/14 09:32:02;;;;;;;21.13;6.13;;;11.90;86.00;;;;;;5050851;28;20068;-68
2023/02/14 09:34:28;;;;;;;20.30;6.03;;;11.50;99.10;;;;;;5051442;28;20107;-67
2023/02/14 09:36:55;;;;;;;13.88;5.50;;;11.70;97.30;;;;;;5050618;28;20114;-68
2023/02/14 09:39:21;;;;;;;;;;;11.90;87.90;;;;;;5050727;28;20094;-66
2023/02/14 09:41:57;;;;;;;19.77;6.50;;;11.80;92.40;;;;;;5050070;28;19978;-67
2023/02/14 09:44:41;;;;;;;18.42;7.00;;;11.90;88.10;;;;;;5032532;28;20550;-67
2023/02/14 09:47:24;;;;;;;23.98;7.35;;;11.90;88.40;;;;;;5049493;28;20096;-65
2023/02/14 09:49:52;;;;;;;20.60;6.80;;;11.40;96.40;;;;;;5050254;28;20486;-67
2023/02/14 09:52:21;;;;;;;20.33;6.47;;;12.20;96.80;;;;;;5050290;28;20076;-67
2023/02/14 09:54:56;;;;;;;18.70;5.80;;;11.80;90.00;;;;;;5048949;28;20085;-68
2023/02/14 09:57:59;;;;;;;18.65;6.47;;;11.80;90.00;;;;;;5049910;28;20065;-66
2023/02/14 10:00:47;;;;;;;14.15;5.18;;;11.90;90.00;;;;;;5049906;28;20090;-66
2023/02/14 10:03:17;;;;;;;17.23;4.68;;;11.90;97.70;;;;;;5033015;28;20067;-66
2023/02/14 10:06:01;;;;;;;13.95;3.63;;;11.80;90.30;;;;;;5050244;28;20083;-67
2023/02/14 10:09:11;;;;;;;17.63;3.88;;;12.00;99.90;;;;;;5048810;28;20100;-67
2023/02/14 10:11:39;;;;;;;12.73;3.50;;;11.70;90.70;;;;;;4950228;28;20410;-66
2023/02/14 10:14:16;;;;;;;13.98;3.65;;;11.80;99.90;;;;;;4950441;28;20078;-68
2023/02/14 10:17:11;;;;;;;13.95;3.47;;;11.90;91.00;;;;;;4950194;29;20096;-65
2023/02/14 10:19:43;;;;;;;8.88;3.00;;;11.60;91.10;;;;;;4927964;28;20083;-66
2023/02/14 10:22:20;;;;;;;8.85;2.88;;;10.60;99.90;;;;;;4949617;29;20104;-66
2023/02/14 10:24:56;;;;;;;9.52;2.38;;;11.60;96.80;;;;;;4950193;29;20081;-66
2023/02/14 10:27:34;;;;;;;6.73;2.70;;;11.50;92.10;;;;;;4949543;29;20088;-67
2023/02/14 10:30:02;;;;;;;19.55;3.60;;;11.50;99.50;;;;;;4949486;29;20070;-66
2023/02/14 10:32:36;;;;;;;8.98;3.20;;;12.10;99.90;;;;;;4950453;28;20445;-67
2023/02/14 10:35:21;;;;;;;13.32;3.47;;;11.20;92.50;;;;;;4949691;28;20210;-66
2023/02/14 10:38:13;;;;;;;13.38;3.92;;;11.40;92.80;;;;;;4949284;28;20127;-65
2023/02/14 10:40:48;;;;;;;10.23;3.55;;;11.70;98.20;;;;;;4942881;28;20078;-66
2023/02/14 10:43:15;;;;;;;13.80;4.78;;;12.00;99.50;;;;;;4948629;28;20150;-67
2023/02/14 10:45:41;;;;;;;14.85;4.63;;;11.50;99.90;;;;;;5010092;28;20106;-67
2023/02/14 10:48:25;;;;;;;;;;;11.40;92.90;;;;;;5049947;28;20319;-68
2023/02/14 10:51:10;;;;;;;10.60;2.88;;;11.30;92.90;;;;;;5048268;28;20396;-67
2023/02/14 10:53:55;;;;;;;13.50;3.50;;;10.70;99.90;;;;;;5048055;28;20541;-66
2023/02/14 10:56:46;;;;;;;13.35;5.00;;;11.40;99.90;;;;;;5048003;28;20061;-66
2023/02/14 10:59:27;;;;;;;14.05;5.20;;;11.20;94.00;;;;;;5049707;28;20079;-67
2023/02/14 11:01:55;;;;;;;9.88;4.15;;;11.40;99.90;;;;;;5049863;28;20078;-66
2023/02/14 11:04:23;;;;;;;11.20;3.88;;;11.40;99.90;;;;;;5049858;28;20128;-66
2023/02/14 11:06:51;;;;;;;13.00;4.20;;;10.30;99.90;;;;;;5048749;28;20085;-67
2023/02/14 11:09:18;;;;;;;8.13;4.40;;;;;;;;;;5048456;28;20138;-64
2023/02/14 11:11:57;;;;;;;18.73;5.90;;;11.20;93.70;;;;;;5048670;28;20465;-67
2023/02/14 11:14:27;;;;;;;13.90;6.70;;;11.10;96.90;;;;;;5048569;28;20063;-66
2023/02/14 11:16:54;;;;;;;17.67;7.30;;;11.00;99.10;;;;;;5048674;28;20161;-65
2023/02/14 11:19:24;;;;;;;17.73;7.30;;;11.00;94.90;;;;;;5048763;28;20079;-66
2023/02/14 11:21:53;;;;;;;17.33;7.50;;;11.10;99.90;;;;;;5047548;28;20069;-67
2023/02/14 11:24:37;;;;;;;21.00;8.18;;;11.10;98.70;;;;;;5048125;28;20525;-68
2023/02/14 11:27:09;;;;;;;20.52;7.53;;;11.50;99.90;;;;;;5046649;28;20437;-67
2023/02/14 11:29:51;;;;;;;22.88;8.07;;;10.90;99.90;;;;;;5049021;28;20065;-66
2023/02/14 11:32:28;;;;;;;21.92;8.48;;;11.10;95.50;;;;;;5048557;28;20109;-67
2023/02/14 11:35:23;;;;;;;18.13;9.07;;;11.30;99.90;;;;;;5048300;28;20140;-64
2023/02/14 11:37:52;;;;;;;23.92;9.45;;;10.70;99.90;;;;;;5048332;28;20084;-67
2023/02/14 11:40:37;;;;;;;20.65;9.18;;;11.10;95.80;;;;;;5048553;28;20064;-67
2023/02/14 11:43:12;;;;;;;24.23;9.85;;;11.00;96.00;;;;;;5048218;28;20384;-65
2023/02/14 11:45:41;;;;;;;27.30;10.50;;;11.30;99.90;;;;;;5048514;28;20075;-67
2023/02/14 11:48:21;;;;;;;23.25;9.68;;;11.00;99.90;;;;;;5048060;28;20082;-66
2023/02/14 11:51:13;;;;;;;17.23;9.70;;;10.90;99.90;;;;;;5047303;28;20153;-65
2023/02/14 11:53:40;;;;;;;24.45;9.32;;;;;;;;;;5046216;28;20141;-66
2023/02/14 11:56:06;;;;;;;24.83;8.23;;;10.60;99.90;;;;;;5048490;28;20330;-67
2023/02/14 11:58:36;;;;;;;;;;;10.90;97.10;;;;;;5050041;28;20049;-66
2023/02/14 12:01:03;;;;;;;24.98;9.30;;;11.50;99.90;;;;;;5048452;28;20437;-66
2023/02/14 12:03:37;;;;;;;31.70;10.65;;;10.80;97.60;;;;;;5048799;28;20064;-66
2023/02/14 12:06:04;;;;;;;25.38;9.68;;;10.90;97.60;;;;;;5046883;28;20137;-68
2023/02/14 12:08:31;;;;;;;27.42;10.07;;;10.90;97.80;;;;;;5029424;28;20107;-67
2023/02/14 12:11:02;;;;;;;23.75;10.38;;;10.80;97.90;;;;;;5047995;28;20067;-66
2023/02/14 12:13:28;;;;;;;23.95;10.48;;;10.80;97.90;;;;;;5047158;28;20149;-66
2023/02/14 12:15:57;;;;;;;31.77;10.65;;;10.70;98.20;;;;;;5048223;28;20057;-65
2023/02/14 12:18:30;;;;;;;28.27;11.93;;;10.80;98.30;;;;;;5048164;28;20071;-65
2023/02/14 12:21:03;;;;;;;24.48;12.75;;;11.00;99.90;;;;;;5048128;28;20154;-67
2023/02/14 12:23:41;;;;;;;30.60;13.75;;;10.70;98.70;;;;;;5047755;28;20062;-67
2023/02/14 12:26:25;;;;;;;27.95;15.15;;;10.70;98.80;;;;;;5047732;28;20092;-68
2023/02/14 12:29:10;;;;;;;34.10;17.38;;;10.70;99.00;;;;;;5047659;28;20520;-67
2023/02/14 12:31:37;;;;;;;37.25;21.33;;;10.60;99.20;;;;;;5047088;28;20064;-67
2023/02/14 12:34:04;;;;;;;36.97;22.42;;;10.50;99.50;;;;;;5048500;28;20083;-66
2023/02/14 12:36:49;;;;;;;37.58;20.85;;;10.50;99.90;;;;;;5050836;28;20137;-67
2023/02/14 12:39:27;;;;;;;41.28;21.08;;;10.40;99.90;;;;;;5050329;28;20116;-67
2023/02/14 12:42:31;;;;;;;31.08;20.67;;;10.50;99.90;;;;;;5051480;28;20073;-67
2023/02/14 12:45:42;;;;;;;41.42;20.67;;;10.40;99.90;;;;;;5050978;28;20094;-66
2023/02/14 12:48:11;;;;;;;28.40;17.08;;;10.30;99.90;;;;;;5050484;28;20075;-66
2023/02/14 12:50:56;;;;;;;26.17;17.23;;;10.20;99.90;;;;;;5050778;28;20070;-66
2023/02/14 12:53:49;;;;;;;31.48;16.85;;;10.20;99.90;;;;;;5050618;28;20088;-67
2023/02/14 12:56:44;;;;;;;22.48;13.52;;;10.30;99.90;;;;;;5050653;28;20092;-67
2023/02/14 12:59:24;;;;;;;25.05;14.30;;;10.30;99.90;;;;;;5045053;28;20070;-66
2023/02/14 13:02:15;;;;;;;24.85;13.68;;;10.10;99.90;;;;;;5050791;28;20086;-64
2023/02/14 13:05:03;;;;;;;21.75;11.60;;;10.20;99.90;;;;;;5051056;28;20090;-67
2023/02/14 13:07:53;;;;;;;20.58;10.77;;;10.20;99.90;;;;;;5049197;28;20089;-65
2023/02/14 13:10:37;;;;;;;21.98;10.30;;;10.20;99.90;;;;;;5050298;28;20085;-65
2023/02/14 13:13:42;;;;;;;21.55;9.98;;;10.30;99.90;;;;;;5050381;28;20156;-67
2023/02/14 13:16:27;;;;;;;20.42;9.18;;;9.70;99.90;;;;;;5013207;28;20113;-65
2023/02/14 13:19:22;;;;;;;22.30;9.02;;;9.20;99.90;;;;;;5050898;28;20431;-66
2023/02/14 13:21:49;;;;;;;22.30;8.48;;;10.00;99.90;;;;;;5050184;28;20094;-66
2023/02/14 13:24:27;;;;;;;22.65;7.78;;;10.10;99.90;;;;;;5051034;28;20069;-67
2023/02/14 13:26:59;;;;;;;20.48;9.00;;;9.40;99.90;;;;;;5050725;28;20104;-67